createdAt,value
2019-03-09T00:01:35.110Z,9.97
2019-03-09T00:04:03.316Z,11.67
2019-03-09T00:06:31.386Z,11.93
2019-03-09T00:08:59.442Z,15.97
2019-03-09T00:11:27.585Z,14.00
2019-03-09T00:13:55.640Z,14.20
2019-03-09T00:16:23.748Z,14.37
2019-03-09T00:18:51.852Z,14.17
2019-03-09T00:21:19.912Z,16.87
2019-03-09T00:24:05.597Z,16.97
2019-03-09T00:26:48.097Z,14.83
2019-03-09T00:29:22.915Z,13.47
2019-03-09T00:32:00.561Z,15.60
2019-03-09T00:34:28.626Z,14.30
2019-03-09T00:36:56.927Z,15.53
2019-03-09T00:39:25.020Z,15.80
2019-03-09T00:41:53.115Z,18.13
2019-03-09T00:44:21.166Z,14.23
2019-03-09T00:46:49.266Z,13.60
2019-03-09T00:49:17.336Z,13.43
2019-03-09T00:51:45.717Z,16.67
2019-03-09T00:54:15.166Z,15.67
2019-03-09T00:56:43.479Z,14.37
2019-03-09T00:59:11.532Z,15.13
2019-03-09T01:01:39.656Z,13.87
2019-03-09T01:04:07.720Z,14.87
2019-03-09T01:06:35.782Z,16.13
2019-03-09T01:09:05.807Z,12.20
2019-03-09T01:11:33.865Z,12.27
2019-03-09T01:14:01.910Z,11.07
2019-03-09T01:16:29.945Z,12.60
2019-03-09T01:18:58.020Z,13.53
2019-03-09T01:21:26.112Z,10.33
2019-03-09T01:23:54.159Z,11.87
2019-03-09T01:26:22.239Z,9.77
2019-03-09T01:28:50.278Z,14.83
2019-03-09T01:31:18.314Z,8.03
2019-03-09T01:33:46.455Z,8.27
2019-03-09T01:36:14.505Z,11.67
2019-03-09T01:38:42.679Z,9.47
2019-03-09T01:41:10.741Z,8.77
2019-03-09T01:43:38.827Z,9.37
2019-03-09T01:46:06.857Z,9.47
2019-03-09T01:48:34.926Z,7.03
2019-03-09T01:51:02.955Z,7.73
2019-03-09T01:53:36.649Z,8.07
2019-03-09T01:56:00.680Z,10.53
2019-03-09T01:58:28.740Z,6.33
2019-03-09T02:00:56.823Z,7.63
2019-03-09T02:03:24.905Z,8.63
2019-03-09T02:05:52.930Z,8.33
2019-03-09T02:08:21.009Z,8.03
2019-03-09T02:10:49.047Z,9.07
2019-03-09T02:13:17.128Z,9.83
2019-03-09T02:15:45.186Z,9.37
2019-03-09T02:18:13.326Z,9.57
2019-03-09T02:20:41.423Z,9.70
2019-03-09T02:23:09.491Z,8.23
2019-03-09T02:25:37.563Z,9.93
2019-03-09T02:28:05.655Z,10.23
2019-03-09T02:30:33.697Z,9.50
2019-03-09T02:33:02.658Z,9.67
2019-03-09T02:35:30.763Z,9.27
2019-03-09T02:38:01.712Z,9.90
2019-03-09T02:40:29.770Z,8.67
2019-03-09T02:42:57.847Z,9.23
2019-03-09T02:45:26.251Z,7.23
2019-03-09T02:47:54.309Z,9.93
2019-03-09T02:50:22.725Z,8.07
2019-03-09T02:52:50.754Z,8.63
2019-03-09T02:55:21.826Z,10.60
2019-03-09T02:57:49.867Z,7.37
2019-03-09T03:00:17.980Z,9.07
2019-03-09T03:03:01.123Z,7.10
2019-03-09T03:06:07.428Z,9.23
2019-03-09T03:08:35.459Z,7.57
2019-03-09T03:11:03.470Z,8.60
2019-03-09T03:13:31.537Z,8.73
2019-03-09T03:15:59.513Z,8.20
2019-03-09T03:18:27.575Z,9.53
2019-03-09T03:20:55.600Z,8.57
2019-03-09T03:23:23.717Z,9.00
2019-03-09T03:25:51.737Z,9.00
2019-03-09T03:28:23.102Z,9.93
2019-03-09T03:30:52.861Z,10.83
2019-03-09T03:33:20.862Z,9.90
2019-03-09T03:35:55.277Z,10.60
2019-03-09T03:38:23.241Z,11.10
2019-03-09T03:40:51.268Z,10.03
2019-03-09T03:43:19.203Z,11.30
2019-03-09T03:45:47.253Z,12.87
2019-03-09T03:48:15.596Z,10.57
2019-03-09T03:50:44.843Z,11.97
2019-03-09T03:53:33.387Z,12.57
2019-03-09T03:56:01.041Z,10.93
2019-03-09T03:58:39.341Z,11.67
2019-03-09T04:01:24.666Z,12.73
2019-03-09T04:03:55.400Z,11.07
2019-03-09T04:06:28.265Z,12.03
2019-03-09T04:08:56.374Z,11.53
2019-03-09T04:11:26.006Z,11.60
2019-03-09T04:13:54.114Z,12.30
2019-03-09T04:16:29.124Z,11.40
2019-03-09T04:18:59.153Z,11.10
2019-03-09T04:21:27.183Z,11.53
2019-03-09T04:23:57.733Z,11.40
2019-03-09T04:26:25.721Z,11.57
2019-03-09T04:28:53.652Z,11.27
2019-03-09T04:31:21.518Z,10.63
2019-03-09T04:33:49.470Z,10.03
2019-03-09T04:36:17.481Z,10.77
2019-03-09T04:38:48.419Z,10.17
2019-03-09T04:41:16.349Z,10.10
2019-03-09T04:43:44.320Z,10.33
2019-03-09T04:46:12.188Z,9.63
2019-03-09T04:48:40.104Z,9.93
2019-03-09T04:51:09.407Z,9.60
2019-03-09T04:53:37.242Z,9.87
2019-03-09T04:56:05.176Z,9.90
2019-03-09T04:58:33.130Z,10.23
2019-03-09T05:01:01.047Z,10.13
2019-03-09T05:03:30.025Z,10.00
2019-03-09T05:05:57.998Z,11.47
2019-03-09T05:08:29.584Z,9.87
2019-03-09T05:11:02.314Z,9.13
2019-03-09T05:13:32.179Z,9.90
2019-03-09T05:16:00.095Z,9.63
2019-03-09T05:18:28.096Z,9.77
2019-03-09T05:20:55.971Z,9.63
2019-03-09T05:23:23.966Z,9.23
2019-03-09T05:25:51.936Z,9.90
2019-03-09T05:28:19.904Z,10.20
2019-03-09T05:30:47.871Z,9.67
2019-03-09T05:33:15.854Z,9.80
2019-03-09T05:35:43.819Z,8.27
2019-03-09T05:38:11.838Z,7.47
2019-03-09T05:40:39.738Z,7.93
2019-03-09T05:43:07.928Z,4.53
2019-03-09T05:45:35.861Z,8.23
2019-03-09T05:48:03.848Z,10.73
2019-03-09T05:50:31.807Z,9.07
2019-03-09T05:53:04.643Z,7.70
2019-03-09T05:55:32.558Z,7.00
2019-03-09T05:58:00.523Z,8.37
2019-03-09T06:00:28.393Z,7.43
2019-03-09T06:02:56.273Z,7.23
2019-03-09T06:05:49.415Z,8.10
2019-03-09T06:08:17.393Z,7.97
2019-03-09T06:10:45.462Z,7.73
2019-03-09T06:13:13.330Z,9.97
2019-03-09T06:15:41.289Z,11.03
2019-03-09T06:18:09.239Z,10.67
2019-03-09T06:20:37.239Z,10.57
2019-03-09T06:23:05.110Z,11.23
2019-03-09T06:25:33.103Z,7.50
2019-03-09T06:28:01.016Z,11.87
2019-03-09T06:30:28.899Z,10.63
2019-03-09T06:33:14.388Z,8.80
2019-03-09T06:35:42.339Z,13.10
2019-03-09T06:38:35.391Z,14.43
2019-03-09T06:41:03.416Z,11.50
2019-03-09T06:43:31.353Z,12.27
2019-03-09T06:45:59.233Z,13.10
2019-03-09T06:48:27.219Z,11.47
2019-03-09T06:50:55.172Z,16.20
2019-03-09T06:53:23.111Z,13.77
2019-03-09T06:55:51.045Z,9.77
2019-03-09T06:58:18.983Z,10.80
2019-03-09T07:00:47.092Z,15.00
2019-03-09T07:03:15.023Z,13.77
2019-03-09T07:05:42.981Z,15.03
2019-03-09T07:08:11.283Z,12.37
2019-03-09T07:10:39.293Z,12.93
2019-03-09T07:13:07.254Z,16.67
2019-03-09T07:15:39.016Z,13.83
2019-03-09T07:18:08.000Z,14.37
2019-03-09T07:20:35.870Z,16.73
2019-03-09T07:23:03.821Z,19.07
2019-03-09T07:25:31.738Z,21.30
2019-03-09T07:28:00.587Z,23.50
2019-03-09T07:30:28.588Z,16.97
2019-03-09T07:32:56.529Z,23.70
2019-03-09T07:35:24.437Z,23.60
2019-03-09T07:37:52.352Z,19.13
2019-03-09T07:40:20.333Z,21.57
2019-03-09T07:42:48.287Z,27.83
2019-03-09T07:45:16.244Z,29.93
2019-03-09T07:50:36.816Z,27.53
2019-03-09T07:53:04.877Z,26.33
2019-03-09T07:55:48.558Z,28.83
2019-03-09T07:58:16.525Z,24.97
2019-03-09T08:00:47.321Z,23.70
2019-03-09T08:03:18.744Z,33.33
2019-03-09T08:05:52.658Z,20.93
2019-03-09T08:10:40.633Z,21.80
2019-03-09T08:13:08.672Z,21.63
2019-03-09T08:15:36.720Z,24.30
2019-03-09T08:18:04.835Z,22.17
2019-03-09T08:20:32.987Z,24.40
2019-03-09T08:23:01.008Z,18.53
2019-03-09T08:25:29.090Z,23.77
2019-03-09T08:27:57.142Z,28.37
2019-03-09T08:30:25.356Z,22.63
2019-03-09T08:32:53.453Z,27.90
2019-03-09T08:35:21.501Z,21.97
2019-03-09T08:37:50.077Z,17.70
2019-03-09T08:40:18.145Z,23.43
2019-03-09T08:42:46.207Z,21.57
2019-03-09T08:45:15.236Z,21.70
2019-03-09T08:47:51.568Z,22.73
2019-03-09T08:50:16.673Z,21.20
2019-03-09T08:52:44.712Z,18.50
2019-03-09T08:55:12.941Z,15.03
2019-03-09T08:57:41.038Z,19.07
2019-03-09T09:00:11.177Z,18.43
2019-03-09T09:02:39.279Z,21.33
2019-03-09T09:05:07.344Z,24.13
2019-03-09T09:07:35.455Z,19.67
2019-03-09T09:10:03.526Z,19.53
2019-03-09T09:12:31.599Z,14.83
2019-03-09T09:14:59.679Z,17.23
2019-03-09T09:17:27.739Z,17.70
2019-03-09T09:19:55.820Z,17.90
2019-03-09T09:22:23.894Z,21.37
2019-03-09T09:24:52.125Z,17.17
2019-03-09T09:27:20.205Z,17.97
2019-03-09T09:29:50.762Z,18.33
2019-03-09T09:32:18.867Z,13.93
2019-03-09T09:34:46.979Z,19.33
2019-03-09T09:37:15.052Z,13.13
2019-03-09T09:39:43.210Z,14.07
2019-03-09T09:42:11.320Z,18.87
2019-03-09T09:44:39.411Z,14.93
2019-03-09T09:47:07.470Z,14.13
2019-03-09T09:49:35.556Z,14.80
2019-03-09T09:52:03.627Z,12.40
2019-03-09T09:54:31.669Z,15.60
2019-03-09T09:56:59.766Z,13.40
2019-03-09T09:59:27.832Z,13.53
2019-03-09T10:01:55.938Z,23.20
2019-03-09T10:04:24.047Z,12.20
2019-03-09T10:06:52.100Z,15.20
2019-03-09T10:09:20.166Z,18.97
2019-03-09T10:11:48.260Z,18.73
2019-03-09T10:14:16.364Z,18.27
2019-03-09T10:16:44.421Z,16.37
2019-03-09T10:19:12.571Z,20.50
2019-03-09T10:21:40.629Z,15.20
2019-03-09T10:24:08.811Z,15.87
2019-03-09T10:26:36.906Z,18.10
2019-03-09T10:29:04.990Z,20.83
2019-03-09T10:31:33.111Z,18.20
2019-03-09T10:34:01.209Z,17.73
2019-03-09T10:36:29.272Z,21.37
2019-03-09T10:38:57.372Z,14.40
2019-03-09T10:41:25.435Z,18.23
2019-03-09T10:43:53.531Z,17.80
2019-03-09T10:46:21.591Z,14.33
2019-03-09T10:48:49.704Z,19.57
2019-03-09T10:51:17.735Z,15.57
2019-03-09T10:53:45.897Z,16.53
2019-03-09T10:56:13.879Z,13.20
2019-03-09T10:58:41.947Z,16.57
2019-03-09T11:01:10.461Z,16.80
2019-03-09T11:03:38.554Z,16.67
2019-03-09T11:06:06.818Z,16.87
2019-03-09T11:08:34.859Z,12.77
2019-03-09T11:11:02.932Z,11.27
2019-03-09T11:13:30.995Z,13.83
2019-03-09T11:15:59.070Z,19.67
2019-03-09T11:18:27.149Z,18.27
2019-03-09T11:20:55.248Z,19.83
2019-03-09T11:23:23.316Z,13.57
2019-03-09T11:25:51.422Z,20.07
2019-03-09T11:28:19.672Z,15.13
2019-03-09T11:30:47.820Z,17.03
2019-03-09T11:33:16.018Z,26.97
2019-03-09T11:35:44.119Z,17.37
2019-03-09T11:38:12.193Z,14.90
2019-03-09T11:40:40.271Z,18.43
2019-03-09T11:43:08.367Z,13.13
2019-03-09T11:45:36.516Z,18.37
2019-03-09T11:48:04.636Z,17.73
2019-03-09T11:50:32.720Z,14.10
2019-03-09T11:53:00.781Z,16.47
2019-03-09T11:55:28.881Z,12.73
2019-03-09T11:57:56.976Z,10.43
2019-03-09T12:00:31.601Z,16.73
2019-03-09T12:02:59.666Z,16.40
2019-03-09T12:05:27.717Z,12.97
2019-03-09T12:07:55.746Z,12.27
2019-03-09T12:10:26.105Z,17.03
2019-03-09T12:12:54.218Z,16.13
2019-03-09T12:15:22.386Z,14.07
2019-03-09T12:17:50.810Z,16.83
2019-03-09T12:20:19.850Z,14.53
2019-03-09T12:22:48.015Z,13.53
2019-03-09T12:25:16.160Z,14.37
2019-03-09T12:27:44.259Z,10.53
2019-03-09T12:30:12.927Z,17.60
2019-03-09T12:32:40.994Z,14.27
2019-03-09T12:35:09.070Z,16.60
2019-03-09T12:37:37.190Z,13.07
2019-03-09T12:40:05.388Z,12.13
2019-03-09T12:42:33.478Z,16.03
2019-03-09T12:45:01.599Z,10.97
2019-03-09T12:47:29.663Z,10.70
2019-03-09T12:49:58.111Z,12.10
2019-03-09T12:52:26.199Z,10.53
2019-03-09T12:54:54.323Z,16.87
2019-03-09T12:57:22.364Z,15.23
2019-03-09T12:59:50.407Z,13.00
2019-03-09T13:02:18.503Z,15.70
2019-03-09T13:05:00.364Z,16.70
2019-03-09T13:07:25.699Z,13.23
2019-03-09T13:09:53.778Z,11.57
2019-03-09T13:12:21.861Z,18.37
2019-03-09T13:14:49.892Z,14.63
2019-03-09T13:17:17.992Z,16.80
2019-03-09T13:19:46.039Z,19.00
2019-03-09T13:22:14.141Z,16.47
2019-03-09T13:24:42.241Z,12.30
2019-03-09T13:27:10.493Z,10.80
2019-03-09T13:29:38.570Z,15.77
2019-03-09T13:32:06.633Z,12.33
2019-03-09T13:34:34.743Z,13.73
2019-03-09T13:37:02.761Z,11.20
2019-03-09T13:39:30.851Z,12.13
2019-03-09T13:41:58.902Z,14.27
2019-03-09T13:44:26.959Z,17.67
2019-03-09T13:46:55.036Z,15.93
2019-03-09T13:49:23.164Z,14.40
2019-03-09T13:51:51.179Z,14.13
2019-03-09T13:54:19.251Z,14.97
2019-03-09T13:56:47.320Z,13.43
2019-03-09T13:59:15.474Z,14.20
2019-03-09T14:01:43.539Z,14.40
2019-03-09T14:04:11.638Z,14.40
2019-03-09T14:06:40.974Z,12.13
2019-03-09T14:09:09.292Z,12.13
2019-03-09T14:11:37.415Z,16.53
2019-03-09T14:14:05.477Z,12.80
2019-03-09T14:16:33.557Z,12.73
2019-03-09T14:19:04.632Z,19.17
2019-03-09T14:21:40.903Z,17.63
2019-03-09T14:24:18.335Z,13.03
2019-03-09T14:26:55.571Z,17.17
2019-03-09T14:29:54.156Z,13.20
2019-03-09T14:32:20.326Z,12.73
2019-03-09T14:35:18.870Z,11.30
2019-03-09T14:37:43.898Z,15.07
2019-03-09T14:40:18.816Z,14.77
2019-03-09T14:42:51.736Z,10.57
2019-03-09T14:45:37.430Z,9.93
2019-03-09T14:48:08.295Z,11.03
2019-03-09T14:50:39.295Z,13.67
2019-03-09T14:53:08.387Z,12.77
2019-03-09T14:55:42.566Z,12.80
2019-03-09T14:58:21.309Z,13.17
2019-03-09T15:01:07.380Z,14.33
2019-03-09T15:03:35.519Z,16.43
2019-03-09T15:06:09.425Z,12.90
2019-03-09T15:08:40.310Z,13.77
2019-03-09T15:11:23.475Z,11.63
2019-03-09T15:13:52.501Z,9.97
2019-03-09T15:16:23.701Z,10.10
2019-03-09T15:19:24.997Z,11.63
2019-03-09T15:22:18.220Z,10.97
2019-03-09T15:24:54.322Z,14.57
2019-03-09T15:33:09.973Z,14.67
2019-03-09T15:35:38.148Z,13.13
2019-03-09T15:38:06.184Z,15.90
2019-03-09T15:40:38.644Z,12.53
2019-03-09T15:43:11.709Z,8.63
2019-03-09T15:45:39.655Z,9.60
2019-03-09T15:48:17.806Z,12.27
2019-03-09T15:50:57.790Z,8.03
2019-03-09T15:53:35.265Z,10.73
2019-03-09T15:56:31.627Z,11.37
2019-03-09T15:59:32.140Z,18.87
2019-03-09T16:01:58.598Z,9.63
2019-03-09T16:04:34.580Z,9.67
2019-03-09T16:07:30.440Z,8.93
2019-03-09T16:10:04.299Z,8.50
2019-03-09T16:12:32.327Z,7.40
2019-03-09T16:15:17.805Z,9.48
2019-03-09T16:18:08.771Z,9.07
2019-03-09T16:20:54.149Z,7.53
2019-03-09T16:23:50.823Z,8.30
2019-03-09T16:26:44.927Z,14.57
2019-03-09T16:29:32.393Z,7.30
2019-03-09T16:38:19.871Z,7.23
2019-03-09T16:40:54.179Z,7.97
2019-03-09T16:43:30.265Z,6.57
2019-03-09T16:45:58.292Z,5.93
2019-03-09T16:48:55.501Z,4.93
2019-03-09T16:52:02.073Z,6.40
2019-03-09T16:54:32.971Z,6.60
2019-03-09T16:57:04.074Z,6.97
2019-03-09T16:59:32.139Z,3.70
2019-03-09T17:02:27.512Z,8.73
2019-03-09T17:05:20.777Z,10.23
2019-03-09T17:07:59.345Z,7.57
2019-03-09T17:10:41.348Z,9.73
2019-03-09T17:13:38.352Z,6.13
2019-03-09T17:16:20.183Z,7.43
2019-03-09T17:19:05.793Z,10.03
2019-03-09T17:21:45.886Z,6.07
2019-03-09T17:24:50.678Z,13.57
2019-03-09T17:27:42.869Z,9.37
2019-03-09T17:30:49.513Z,6.87
2019-03-09T17:34:11.832Z,8.00
2019-03-09T17:36:58.210Z,11.07
2019-03-09T17:39:51.285Z,8.37
2019-03-09T17:42:30.367Z,7.13
2019-03-09T17:45:08.479Z,7.90
2019-03-09T17:47:51.300Z,8.27
2019-03-09T17:50:26.839Z,6.27
2019-03-09T17:52:59.029Z,11.27
2019-03-09T17:55:49.730Z,6.47
2019-03-09T17:58:18.871Z,4.23
2019-03-09T18:00:55.730Z,6.27
2019-03-09T18:03:21.310Z,5.07
2019-03-09T18:05:51.337Z,4.93
2019-03-09T18:08:19.271Z,4.63
2019-03-09T18:10:52.904Z,5.00
2019-03-09T18:13:20.977Z,5.10
2019-03-09T18:16:03.716Z,7.33
2019-03-09T18:18:33.706Z,6.53
2019-03-09T18:21:13.480Z,3.30
2019-03-09T18:23:41.467Z,9.70
2019-03-09T18:26:09.532Z,3.77
2019-03-09T18:28:43.127Z,4.50
2019-03-09T18:31:21.700Z,3.10
2019-03-09T18:33:51.523Z,6.57
2019-03-09T18:36:19.567Z,5.80
2019-03-09T18:38:47.550Z,8.63
2019-03-09T18:41:15.564Z,10.20
2019-03-09T18:43:43.620Z,7.20
2019-03-09T18:46:13.736Z,6.40
2019-03-09T18:48:41.211Z,7.67
2019-03-09T18:51:09.211Z,3.87
2019-03-09T18:53:37.172Z,7.50
2019-03-09T18:56:05.082Z,8.63
2019-03-09T18:58:33.068Z,6.97
2019-03-09T19:01:01.118Z,10.50
2019-03-09T19:03:29.073Z,7.80
2019-03-09T19:05:57.130Z,7.77
2019-03-09T19:08:25.105Z,13.17
2019-03-09T19:10:53.143Z,9.80
2019-03-09T19:13:21.175Z,7.67
2019-03-09T19:15:49.166Z,7.17
2019-03-09T19:18:17.148Z,9.93
2019-03-09T19:20:45.130Z,13.40
2019-03-09T19:23:13.067Z,12.60
2019-03-09T19:25:41.021Z,10.00
2019-03-09T19:28:09.047Z,7.30
2019-03-09T19:30:37.061Z,7.40
2019-03-09T19:33:05.026Z,11.50
2019-03-09T19:35:33.056Z,11.67
2019-03-09T19:38:00.999Z,15.83
2019-03-09T19:40:29.217Z,16.23
2019-03-09T19:42:57.369Z,13.87
2019-03-09T19:45:25.490Z,10.97
2019-03-09T19:47:53.859Z,17.57
2019-03-09T19:50:21.996Z,14.53
2019-03-09T19:52:52.106Z,16.17
2019-03-09T19:55:20.065Z,15.03
2019-03-09T19:57:48.093Z,15.00
2019-03-09T20:00:16.042Z,12.80
2019-03-09T20:02:44.053Z,10.97
2019-03-09T20:05:12.220Z,14.53
2019-03-09T20:07:40.286Z,20.27
2019-03-09T20:10:10.425Z,15.57
2019-03-09T20:12:38.424Z,11.47
2019-03-09T20:15:07.057Z,15.37
2019-03-09T20:17:34.944Z,14.60
2019-03-09T20:20:02.914Z,18.33
2019-03-09T20:22:30.988Z,15.00
2019-03-09T20:24:59.028Z,16.97
2019-03-09T20:27:26.933Z,13.87
2019-03-09T20:32:23.975Z,15.00
2019-03-09T20:34:52.042Z,13.27
2019-03-09T20:37:20.159Z,19.50
2019-03-09T20:39:50.836Z,19.93
2019-03-09T20:42:18.926Z,17.10
2019-03-09T20:44:49.035Z,17.97
2019-03-09T20:47:17.185Z,14.93
2019-03-09T20:49:45.296Z,20.03
2019-03-09T20:52:13.463Z,15.47
2019-03-09T20:54:41.569Z,19.73
2019-03-09T20:57:09.908Z,14.30
2019-03-09T20:59:39.970Z,15.80
2019-03-09T21:02:07.793Z,15.57
2019-03-09T21:04:36.930Z,19.80
2019-03-09T21:07:05.062Z,17.73
2019-03-09T21:09:33.261Z,11.97
2019-03-09T21:12:02.515Z,15.53
2019-03-09T21:14:30.685Z,18.63
2019-03-09T21:16:59.805Z,17.20
2019-03-09T21:19:28.315Z,15.83
2019-03-09T21:21:56.462Z,14.87
2019-03-09T21:24:26.259Z,15.03
2019-03-09T21:27:09.744Z,13.70
2019-03-09T21:29:37.840Z,12.97
2019-03-09T21:32:26.686Z,16.97
2019-03-09T21:34:54.801Z,18.60
2019-03-09T21:37:22.901Z,14.93
2019-03-09T21:39:51.004Z,19.67
2019-03-09T21:42:19.121Z,15.97
2019-03-09T21:44:47.314Z,13.90
2019-03-09T21:47:15.464Z,13.03
2019-03-09T21:49:48.049Z,12.37
2019-03-09T21:52:16.157Z,16.03
2019-03-09T21:54:47.239Z,13.20
2019-03-09T21:57:15.354Z,13.30
2019-03-09T21:59:43.458Z,16.13
2019-03-09T22:02:11.669Z,14.00
2019-03-09T22:04:39.813Z,16.67
2019-03-09T22:07:07.902Z,14.63
2019-03-09T22:09:36.009Z,11.60
2019-03-09T22:12:04.197Z,13.27
2019-03-09T22:14:32.383Z,14.37
2019-03-09T22:17:00.916Z,12.37
2019-03-09T22:19:29.189Z,18.23
2019-03-09T22:21:57.280Z,18.97
2019-03-09T22:24:25.374Z,12.97
2019-03-09T22:26:53.475Z,11.97
2019-03-09T22:29:21.662Z,18.10
2019-03-09T22:31:49.758Z,13.27
2019-03-09T22:34:17.882Z,11.80
2019-03-09T22:36:45.973Z,14.10
2019-03-09T22:39:14.111Z,9.70
2019-03-09T22:41:42.156Z,11.50
2019-03-09T22:44:10.619Z,11.50
2019-03-09T22:46:38.718Z,16.07
2019-03-09T22:49:09.037Z,13.20
2019-03-09T22:51:37.183Z,14.33
2019-03-09T22:54:05.320Z,13.97
2019-03-09T22:56:33.391Z,13.40
2019-03-09T22:59:01.498Z,10.13
2019-03-09T23:01:29.578Z,13.03
2019-03-09T23:03:57.688Z,19.27
2019-03-09T23:06:25.863Z,12.93
2019-03-09T23:08:54.055Z,12.23
2019-03-09T23:11:22.237Z,9.67
2019-03-09T23:13:50.296Z,9.03
2019-03-09T23:16:18.373Z,10.93
2019-03-09T23:18:46.464Z,12.27
2019-03-09T23:21:14.573Z,15.07
2019-03-09T23:23:42.682Z,9.37
2019-03-09T23:26:10.829Z,12.83
2019-03-09T23:28:44.163Z,14.40
2019-03-09T23:31:12.238Z,13.13
2019-03-09T23:33:40.348Z,14.70
2019-03-09T23:36:08.427Z,9.73
2019-03-09T23:38:37.900Z,12.70
2019-03-09T23:41:05.990Z,12.07
2019-03-09T23:46:26.686Z,16.10
2019-03-09T23:48:55.081Z,11.37
2019-03-09T23:51:23.166Z,8.77
2019-03-09T23:53:51.226Z,10.83
2019-03-09T23:56:19.409Z,10.87
2019-03-09T23:58:47.494Z,12.03
